Time;durP1;ratioP1;P1;durP2;ratioP2;P2;SDS_P1;SDS_P2;PMS_P1;PMS_P2;Temp;Humidity;BMP_temperature;BMP_pressure;BME280_temperature;BME280_humidity;BME280_pressure;Samples;Min_cycle;Max_cycle;Signal;HPM_P1;HPM_P2
2023/10/23 00:01:08;;;;;;;;;;;11.80;92.10;;;;;;5122882;27;20478;-82
2023/10/23 00:03:34;;;;;;;;;;;11.80;92.10;;;;;;5126158;27;20080;-82
2023/10/23 00:06:01;;;;;;;;;;;11.70;92.50;;;;;;5119825;27;19982;-84
2023/10/23 00:08:28;;;;;;;;;;;11.80;92.20;;;;;;5122399;27;19989;-82
2023/10/23 00:10:56;;;;;;;;;;;11.70;92.20;;;;;;5121239;27;19985;-82
2023/10/23 00:13:22;;;;;;;;;;;11.70;92.20;;;;;;5121184;27;19990;-83
2023/10/23 00:15:49;;;;;;;;;;;11.70;92.10;;;;;;5122953;27;20003;-82
2023/10/23 00:18:15;;;;;;;;;;;11.70;92.10;;;;;;5120094;27;19978;-82
2023/10/23 00:20:42;;;;;;;;;;;11.70;92.10;;;;;;5120079;27;19974;-82
2023/10/23 00:23:08;;;;;;;;;;;11.60;92.10;;;;;;5122714;27;20081;-82
2023/10/23 00:25:35;;;;;;;;;;;11.60;92.10;;;;;;5120989;27;20438;-82
2023/10/23 00:28:03;;;;;;;;;;;11.60;92.10;;;;;;5124325;27;20468;-82
2023/10/23 00:30:34;;;;;;;;;;;11.60;92.10;;;;;;5122833;27;19994;-82
2023/10/23 00:33:01;;;;;;;;;;;11.50;92.10;;;;;;5120513;27;20003;-82
2023/10/23 00:35:27;;;;;;;;;;;11.60;92.20;;;;;;5123102;27;19981;-82
2023/10/23 00:37:54;;;;;;;;;;;11.50;92.20;;;;;;5122459;27;20005;-82
2023/10/23 00:40:20;;;;;;;;;;;11.50;92.20;;;;;;5121021;27;19997;-82
2023/10/23 00:42:47;;;;;;;;;;;11.50;92.50;;;;;;5122047;27;20379;-82
2023/10/23 00:45:15;;;;;;;;;;;11.50;92.20;;;;;;5122030;27;20598;-82
2023/10/23 00:47:42;;;;;;;;;;;11.50;92.20;;;;;;5119189;27;20413;-82
2023/10/23 00:50:08;;;;;;;;;;;11.40;92.20;;;;;;5125977;27;19986;-82
2023/10/23 00:52:36;;;;;;;;;;;11.40;92.20;;;;;;5119924;27;19990;-81
2023/10/23 00:55:03;;;;;;;;;;;11.40;92.40;;;;;;5119384;27;19990;-81
2023/10/23 00:57:30;;;;;;;;;;;11.40;92.20;;;;;;5114956;27;20033;-82
2023/10/23 00:59:56;;;;;;;;;;;11.40;92.50;;;;;;5120618;27;19979;-82
2023/10/23 01:02:24;;;;;;;;;;;11.40;92.20;;;;;;5118240;27;20002;-82
2023/10/23 01:04:51;;;;;;;;;;;11.30;92.20;;;;;;5122519;27;19982;-82
2023/10/23 01:07:18;;;;;;;;;;;11.30;92.20;;;;;;5121649;27;19998;-82
2023/10/23 01:09:44;;;;;;;;;;;11.20;92.20;;;;;;5121560;27;19982;-81
2023/10/23 01:12:11;;;;;;;;;;;11.20;92.20;;;;;;5120351;27;19998;-82
2023/10/23 01:14:38;;;;;;;;;;;11.20;92.20;;;;;;5120464;27;20017;-82
2023/10/23 01:17:04;;;;;;;;;;;11.20;92.20;;;;;;5118052;27;20006;-82
2023/10/23 01:19:32;;;;;;;;;;;11.20;92.20;;;;;;5123297;27;19978;-82
2023/10/23 01:21:59;;;;;;;;;;;11.20;92.20;;;;;;5122106;27;19991;-82
2023/10/23 01:24:27;;;;;;;;;;;11.10;92.20;;;;;;5117012;27;19975;-82
2023/10/23 01:26:55;;;;;;;;;;;11.10;92.20;;;;;;5120854;27;19982;-82
2023/10/23 01:29:23;;;;;;;;;;;11.10;92.30;;;;;;5126064;27;19984;-82
2023/10/23 01:31:49;;;;;;;;;;;11.10;92.30;;;;;;5120839;27;20020;-82
2023/10/23 01:34:16;;;;;;;;;;;11.10;92.30;;;;;;5126648;27;20037;-81
2023/10/23 01:36:42;;;;;;;;;;;11.00;92.20;;;;;;5121487;27;20498;-82
2023/10/23 01:39:09;;;;;;;;;;;11.10;92.30;;;;;;5120766;27;20525;-81
2023/10/23 01:41:36;;;;;;;;;;;11.00;92.20;;;;;;5115301;27;20442;-82
2023/10/23 01:44:04;;;;;;;;;;;11.00;92.30;;;;;;5118551;27;20000;-82
2023/10/23 01:46:30;;;;;;;;;;;11.00;92.20;;;;;;5116214;27;19998;-82
2023/10/23 01:48:57;;;;;;;;;;;11.00;92.30;;;;;;5122817;27;20349;-82
2023/10/23 01:51:23;;;;;;;;;;;10.90;92.30;;;;;;5119659;27;19989;-82
2023/10/23 01:53:50;;;;;;;;;;;10.90;92.60;;;;;;5122818;27;20002;-82
2023/10/23 01:56:17;;;;;;;;;;;10.90;92.30;;;;;;5114989;27;19974;-82
2023/10/23 01:58:43;;;;;;;;;;;11.00;92.30;;;;;;5114953;27;20441;-82
2023/10/23 02:01:19;;;;;;;;;;;10.90;92.30;;;;;;5111980;27;20585;-82
2023/10/23 02:03:46;;;;;;;;;;;10.90;92.30;;;;;;5114872;27;20513;-82
2023/10/23 02:06:13;;;;;;;;;;;10.90;92.30;;;;;;5112650;27;19978;-82
2023/10/23 02:08:39;;;;;;;;;;;10.80;92.40;;;;;;5115172;27;20059;-82
2023/10/23 02:11:07;;;;;;;;;;;10.80;92.40;;;;;;5117364;27;19990;-83
2023/10/23 02:13:34;;;;;;;;;;;10.80;92.40;;;;;;5116461;27;19990;-82
2023/10/23 02:16:00;;;;;;;;;;;10.80;92.40;;;;;;5116320;27;20471;-82
2023/10/23 02:18:28;;;;;;;;;;;10.70;92.30;;;;;;5117368;27;19979;-82
2023/10/23 02:20:55;;;;;;;;;;;10.70;92.40;;;;;;5114533;27;20090;-82
2023/10/23 02:23:21;;;;;;;;;;;10.70;92.40;;;;;;5118769;27;20198;-82
2023/10/23 02:25:48;;;;;;;;;;;10.70;92.40;;;;;;5122140;27;19979;-82
2023/10/23 02:28:16;;;;;;;;;;;10.70;92.40;;;;;;5123915;27;20019;-82
2023/10/23 02:30:42;;;;;;;;;;;10.70;92.40;;;;;;5118550;27;19995;-82
2023/10/23 02:33:09;;;;;;;;;;;10.70;92.40;;;;;;5122978;27;20470;-82
2023/10/23 02:35:37;;;;;;;;;;;10.60;92.40;;;;;;5119069;27;19986;-82
2023/10/23 02:38:03;;;;;;;;;;;10.60;92.50;;;;;;5126312;27;20065;-82
2023/10/23 02:40:30;;;;;;;;;;;10.60;92.50;;;;;;5125811;27;19979;-82
2023/10/23 02:42:57;;;;;;;;;;;10.60;92.50;;;;;;5127035;27;20363;-82
2023/10/23 02:45:23;;;;;;;;;;;10.50;92.40;;;;;;5114283;27;20009;-82
2023/10/23 02:47:50;;;;;;;;;;;10.60;92.50;;;;;;5120147;27;19985;-82
2023/10/23 02:50:17;;;;;;;;;;;10.50;92.40;;;;;;5123014;27;20011;-81
2023/10/23 02:52:45;;;;;;;;;;;10.50;92.40;;;;;;5112596;27;19990;-82
2023/10/23 02:55:11;;;;;;;;;;;10.50;92.40;;;;;;5116825;27;20002;-82
2023/10/23 02:57:38;;;;;;;;;;;10.50;92.50;;;;;;5117174;27;19985;-82
2023/10/23 03:00:06;;;;;;;;;;;10.40;92.50;;;;;;5120365;27;20346;-82
2023/10/23 03:02:33;;;;;;;;;;;10.40;92.50;;;;;;5118019;27;20072;-82
2023/10/23 03:04:59;;;;;;;;;;;10.40;92.50;;;;;;5121665;27;20077;-82
2023/10/23 03:07:26;;;;;;;;;;;10.40;92.50;;;;;;5120502;27;20025;-82
2023/10/23 03:09:54;;;;;;;;;;;10.40;92.50;;;;;;5123146;28;20042;-82
2023/10/23 03:12:20;;;;;;;;;;;10.40;92.50;;;;;;5119548;27;20025;-82
2023/10/23 03:14:47;;;;;;;;;;;10.40;92.50;;;;;;5117785;27;19990;-82
2023/10/23 03:17:14;;;;;;;;;;;10.40;92.50;;;;;;5116173;27;20002;-82
2023/10/23 03:19:40;;;;;;;;;;;10.30;92.50;;;;;;5118280;27;19981;-82
2023/10/23 03:22:07;;;;;;;;;;;10.30;92.50;;;;;;5121161;27;19994;-82
2023/10/23 03:24:34;;;;;;;;;;;10.30;92.50;;;;;;5126265;27;19987;-81
2023/10/23 03:27:02;;;;;;;;;;;10.30;92.50;;;;;;5118111;27;19979;-82
2023/10/23 03:29:28;;;;;;;;;;;10.30;92.50;;;;;;5122332;27;19977;-81
2023/10/23 03:31:55;;;;;;;;;;;10.30;92.50;;;;;;5119437;27;19999;-82
2023/10/23 03:34:21;;;;;;;;;;;10.30;92.50;;;;;;5125877;27;19994;-82
2023/10/23 03:36:48;;;;;;;;;;;10.20;92.50;;;;;;5123334;27;19983;-82
2023/10/23 03:39:15;;;;;;;;;;;10.30;92.50;;;;;;5120541;27;19974;-82
2023/10/23 03:41:42;;;;;;;;;;;10.20;92.50;;;;;;5120792;27;20493;-81
2023/10/23 03:44:10;;;;;;;;;;;10.20;92.50;;;;;;5121278;27;20062;-83
2023/10/23 03:46:37;;;;;;;;;;;10.20;92.50;;;;;;5119213;27;20009;-82
2023/10/23 03:49:03;;;;;;;;;;;10.20;92.50;;;;;;5130147;27;20070;-82
2023/10/23 03:51:30;;;;;;;;;;;10.10;92.50;;;;;;5122259;27;20354;-82
2023/10/23 03:53:56;;;;;;;;;;;10.10;92.50;;;;;;5128040;27;19994;-82
2023/10/23 03:56:23;;;;;;;;;;;10.10;92.50;;;;;;5124560;27;19978;-82
2023/10/23 03:58:49;;;;;;;;;;;10.10;92.50;;;;;;5122492;27;19978;-82
2023/10/23 04:01:17;;;;;;;;;;;10.10;92.50;;;;;;5115565;27;20003;-81
2023/10/23 04:03:44;;;;;;;;;;;10.10;92.60;;;;;;5119252;27;20081;-81
2023/10/23 04:06:11;;;;;;;;;;;10.10;92.60;;;;;;5125503;27;20470;-82
2023/10/23 04:08:37;;;;;;;;;;;10.00;92.50;;;;;;5121417;27;19971;-81
2023/10/23 04:11:04;;;;;;;;;;;10.00;92.50;;;;;;5123034;27;19975;-81
2023/10/23 04:13:30;;;;;;;;;;;10.00;92.50;;;;;;5111601;27;19990;-81
2023/10/23 04:15:58;;;;;;;;;;;10.00;92.50;;;;;;5120704;27;20001;-81
2023/10/23 04:18:26;;;;;;;;;;;10.00;92.60;;;;;;5119116;27;20037;-81
2023/10/23 04:21:02;;;;;;;;;;;10.00;92.50;;;;;;5115059;27;20010;-81
2023/10/23 04:23:28;;;;;;;;;;;9.90;92.60;;;;;;5114989;27;20107;-81
2023/10/23 04:25:55;;;;;;;;;;;9.90;92.60;;;;;;5116173;27;19979;-81
2023/10/23 04:28:22;;;;;;;;;;;10.00;92.60;;;;;;5118648;27;20064;-81
2023/10/23 04:30:51;;;;;;;;;;;9.90;92.60;;;;;;5113354;27;20963;-80
2023/10/23 04:33:21;;;;;;;;;;;9.90;92.60;;;;;;5116921;27;20303;-80
2023/10/23 04:35:50;;;;;;;;;;;9.90;92.60;;;;;;5113508;27;20471;-80
2023/10/23 04:38:17;;;;;;;;;;;9.80;92.60;;;;;;5120062;27;19975;-81
2023/10/23 04:40:44;;;;;;;;;;;9.80;92.60;;;;;;5119048;27;19974;-81
2023/10/23 04:43:10;;;;;;;;;;;9.80;92.60;;;;;;5117411;27;20036;-80
2023/10/23 04:45:37;;;;;;;;;;;9.80;92.60;;;;;;5116814;27;19994;-81
2023/10/23 04:48:04;;;;;;;;;;;9.80;92.60;;;;;;5117764;27;19975;-80
2023/10/23 04:50:31;;;;;;;;;;;9.80;92.60;;;;;;5116237;27;19975;-80
2023/10/23 04:53:00;;;;;;;;;;;9.80;92.60;;;;;;5115272;27;19994;-79
2023/10/23 04:55:26;;;;;;;;;;;9.70;92.60;;;;;;5119817;27;20539;-80
2023/10/23 04:57:53;;;;;;;;;;;9.60;92.50;;;;;;5111289;27;19983;-81
2023/10/23 05:00:20;;;;;;;;;;;9.50;93.10;;;;;;5116391;27;19982;-81
2023/10/23 05:02:46;;;;;;;;;;;9.50;93.10;;;;;;5120353;27;19990;-80
2023/10/23 05:05:13;;;;;;;;;;;9.40;93.10;;;;;;5120479;27;19970;-81
2023/10/23 05:07:39;;;;;;;;;;;9.40;93.00;;;;;;5117578;27;19968;-81
2023/10/23 05:10:09;;;;;;;;;;;9.50;93.00;;;;;;5121043;27;19961;-81
2023/10/23 05:12:36;;;;;;;;;;;9.50;92.90;;;;;;5118561;27;19967;-81
2023/10/23 05:15:03;;;;;;;;;;;9.50;92.90;;;;;;5117764;27;20473;-81
2023/10/23 05:17:29;;;;;;;;;;;9.50;92.90;;;;;;5121786;27;20056;-81
2023/10/23 05:19:56;;;;;;;;;;;9.50;92.80;;;;;;5118135;27;19949;-81
2023/10/23 05:22:23;;;;;;;;;;;9.50;92.80;;;;;;5118133;27;19960;-80
2023/10/23 05:24:49;;;;;;;;;;;9.50;92.80;;;;;;5114525;27;19938;-81
2023/10/23 05:27:18;;;;;;;;;;;9.50;92.70;;;;;;5116551;27;19949;-81
2023/10/23 05:29:45;;;;;;;;;;;9.50;92.80;;;;;;5114178;27;19938;-81
2023/10/23 05:32:11;;;;;;;;;;;9.50;92.70;;;;;;5121150;27;19966;-81
2023/10/23 05:34:38;;;;;;;;;;;9.50;92.70;;;;;;5117210;27;19957;-81
2023/10/23 05:37:04;;;;;;;;;;;9.50;92.70;;;;;;5115740;27;20029;-81
2023/10/23 05:39:32;;;;;;;;;;;9.50;92.60;;;;;;5112347;27;20637;-81
2023/10/23 05:41:59;;;;;;;;;;;9.50;92.60;;;;;;5113509;27;19958;-81
2023/10/23 05:44:27;;;;;;;;;;;9.50;92.60;;;;;;5117166;27;19949;-81
2023/10/23 05:46:54;;;;;;;;;;;9.50;92.60;;;;;;5109977;27;20337;-80
2023/10/23 05:49:20;;;;;;;;;;;9.50;92.60;;;;;;5113320;27;20268;-81
2023/10/23 05:51:47;;;;;;;;;;;9.50;92.60;;;;;;5114616;27;20001;-80
2023/10/23 05:54:16;;;;;;;;;;;9.40;92.60;;;;;;5119758;27;20070;-80
2023/10/23 05:56:43;;;;;;;;;;;9.50;92.50;;;;;;5111880;27;19978;-81
2023/10/23 05:59:09;;;;;;;;;;;9.40;92.50;;;;;;5113804;27;20197;-80
2023/10/23 06:01:38;;;;;;;;;;;9.40;92.50;;;;;;5109656;27;20005;-81
2023/10/23 06:04:05;;;;;;;;;;;9.40;92.50;;;;;;5108795;27;20274;-80
2023/10/23 06:06:32;;;;;;;;;;;9.40;92.50;;;;;;5115398;27;19990;-81
2023/10/23 06:08:59;;;;;;;;;;;9.40;92.90;;;;;;5118679;27;20006;-80
2023/10/23 06:11:26;;;;;;;;;;;9.30;92.50;;;;;;5111248;27;19985;-81
2023/10/23 06:13:52;;;;;;;;;;;9.40;92.60;;;;;;5114288;27;20359;-80
2023/10/23 06:16:19;;;;;;;;;;;9.40;92.60;;;;;;5114715;27;19998;-80
2023/10/23 06:18:47;;;;;;;;;;;9.30;92.60;;;;;;5114057;27;19978;-80
2023/10/23 06:21:13;;;;;;;;;;;9.30;92.60;;;;;;5121391;27;19978;-81
2023/10/23 06:23:40;;;;;;;;;;;9.30;92.60;;;;;;5115854;27;19998;-81
2023/10/23 06:26:08;;;;;;;;;;;9.30;92.60;;;;;;5116746;27;20005;-80
2023/10/23 06:28:35;;;;;;;;;;;9.30;92.60;;;;;;5113974;27;19978;-80
2023/10/23 06:31:05;;;;;;;;;;;9.20;92.50;;;;;;5114436;27;19994;-80
2023/10/23 06:33:32;;;;;;;;;;;9.30;92.60;;;;;;5113572;27;20001;-81
2023/10/23 06:36:00;;;;;;;;;;;9.30;92.50;;;;;;5119127;27;20296;-81
2023/10/23 06:38:26;;;;;;;;;;;9.20;92.50;;;;;;5115973;27;20650;-81
2023/10/23 06:40:53;;;;;;;;;;;9.20;92.50;;;;;;5111459;27;19983;-81
2023/10/23 06:43:19;;;;;;;;;;;9.20;92.60;;;;;;5112196;27;19998;-81
2023/10/23 06:45:46;;;;;;;;;;;9.20;92.60;;;;;;5115224;27;20001;-81
2023/10/23 06:48:14;;;;;;;;;;;9.20;92.60;;;;;;5112811;28;20448;-81
2023/10/23 06:50:45;;;;;;;;;;;9.20;92.60;;;;;;5118535;27;20224;-81
2023/10/23 06:53:13;;;;;;;;;;;9.20;92.70;;;;;;5115316;27;20053;-81
2023/10/23 06:55:46;;;;;;;;;;;9.20;92.70;;;;;;5111817;27;20081;-81
2023/10/23 06:58:13;;;;;;;;;;;9.10;92.70;;;;;;5112465;28;19978;-81
2023/10/23 07:00:39;;;;;;;;;;;9.20;92.70;;;;;;5117917;27;19991;-80
2023/10/23 07:03:07;;;;;;;;;;;9.10;92.70;;;;;;5120563;27;20001;-80
2023/10/23 07:05:34;;;;;;;;;;;9.20;92.80;;;;;;5118745;27;19978;-81
2023/10/23 07:08:01;;;;;;;;;;;9.10;92.80;;;;;;5120737;27;19979;-80
2023/10/23 07:10:29;;;;;;;;;;;9.10;92.90;;;;;;5115883;27;19988;-81
2023/10/23 07:12:55;;;;;;;;;;;9.10;92.90;;;;;;5117535;27;20006;-80
2023/10/23 07:15:22;;;;;;;;;;;9.10;92.90;;;;;;5116605;27;20002;-81
2023/10/23 07:17:48;;;;;;;;;;;9.10;92.90;;;;;;5119599;27;19979;-81
2023/10/23 07:20:17;;;;;;;;;;;9.10;93.00;;;;;;5120638;27;19983;-81
2023/10/23 07:22:43;;;;;;;;;;;9.10;93.00;;;;;;5122265;27;20304;-81
2023/10/23 07:25:11;;;;;;;;;;;9.10;93.00;;;;;;5121396;27;19978;-81
2023/10/23 07:27:40;;;;;;;;;;;9.10;93.10;;;;;;5115529;27;19978;-81
2023/10/23 07:30:07;;;;;;;;;;;9.00;93.10;;;;;;5123802;27;20029;-81
2023/10/23 07:32:35;;;;;;;;;;;9.00;93.10;;;;;;5119858;27;20633;-80
2023/10/23 07:35:03;;;;;;;;;;;9.10;93.10;;;;;;5122427;27;20358;-81
2023/10/23 07:37:30;;;;;;;;;;;9.10;93.20;;;;;;5119234;27;20457;-81
2023/10/23 07:39:57;;;;;;;;;;;9.10;93.20;;;;;;5119657;27;19979;-82
2023/10/23 07:42:24;;;;;;;;;;;9.10;93.20;;;;;;5121449;27;19998;-81
2023/10/23 07:44:52;;;;;;;;;;;9.10;93.20;;;;;;5116073;27;20629;-81
2023/10/23 07:47:18;;;;;;;;;;;9.10;93.20;;;;;;5116961;27;20001;-81
2023/10/23 07:49:45;;;;;;;;;;;9.00;93.20;;;;;;5118887;27;19983;-81
2023/10/23 07:52:12;;;;;;;;;;;9.10;93.30;;;;;;5118735;27;19999;-81
2023/10/23 07:54:38;;;;;;;;;;;9.10;93.30;;;;;;5116981;27;19982;-82
2023/10/23 07:57:05;;;;;;;;;;;9.10;93.30;;;;;;5117008;27;20367;-82
2023/10/23 07:59:32;;;;;;;;;;;9.10;93.30;;;;;;5119889;27;19985;-82
2023/10/23 08:02:00;;;;;;;;;;;9.10;93.40;;;;;;5118238;27;19998;-82
2023/10/23 08:04:27;;;;;;;;;;;9.10;93.40;;;;;;5116765;27;20009;-82
2023/10/23 08:06:53;;;;;;;;;;;9.10;93.50;;;;;;5113320;27;19983;-82
2023/10/23 08:09:20;;;;;;;;;;;9.10;93.50;;;;;;5121011;27;19986;-82
2023/10/23 08:11:47;;;;;;;;;;;9.10;93.50;;;;;;5113880;27;20222;-82
2023/10/23 08:14:13;;;;;;;;;;;9.10;93.50;;;;;;5121939;27;20473;-82
2023/10/23 08:16:40;;;;;;;;;;;9.10;93.50;;;;;;5118253;27;19998;-82
2023/10/23 08:19:10;;;;;;;;;;;9.10;93.60;;;;;;5123515;27;20362;-82
2023/10/23 08:21:37;;;;;;;;;;;9.10;93.90;;;;;;5118055;27;19982;-82
2023/10/23 08:24:04;;;;;;;;;;;9.10;93.60;;;;;;5119218;27;20021;-82
2023/10/23 08:26:30;;;;;;;;;;;9.20;93.60;;;;;;5119564;27;20624;-82
2023/10/23 08:28:57;;;;;;;;;;;9.20;93.60;;;;;;5124761;27;19978;-82
2023/10/23 08:31:24;;;;;;;;;;;9.20;93.60;;;;;;5117193;27;20029;-82
2023/10/23 08:33:50;;;;;;;;;;;9.20;93.60;;;;;;5117571;27;20037;-83
2023/10/23 08:36:18;;;;;;;;;;;9.20;93.60;;;;;;5121587;27;20021;-82
2023/10/23 08:38:45;;;;;;;;;;;9.20;93.60;;;;;;5120030;27;19974;-82
2023/10/23 08:41:12;;;;;;;;;;;9.20;93.60;;;;;;5119121;27;20069;-82
2023/10/23 08:43:39;;;;;;;;;;;9.20;93.60;;;;;;5115134;27;20116;-82
2023/10/23 08:46:08;;;;;;;;;;;9.30;93.60;;;;;;5116730;27;19991;-84
2023/10/23 08:48:35;;;;;;;;;;;9.30;93.70;;;;;;5115387;27;20036;-84
2023/10/23 08:51:02;;;;;;;;;;;9.30;93.70;;;;;;5119324;27;20461;-83
2023/10/23 08:53:32;;;;;;;;;;;9.30;93.70;;;;;;5119153;27;20285;-83
2023/10/23 08:56:00;;;;;;;;;;;9.30;93.70;;;;;;5121642;27;20171;-82
2023/10/23 08:58:26;;;;;;;;;;;9.30;93.70;;;;;;5118774;27;19974;-82
2023/10/23 09:00:53;;;;;;;;;;;9.30;93.70;;;;;;5114650;27;19994;-83
2023/10/23 09:03:21;;;;;;;;;;;9.30;93.70;;;;;;5116047;27;20040;-83
2023/10/23 09:05:47;;;;;;;;;;;9.40;93.70;;;;;;5119592;27;20009;-84
2023/10/23 09:08:15;;;;;;;;;;;9.40;93.70;;;;;;5119558;27;19974;-83
2023/10/23 09:11:00;;;;;;;;;;;9.40;93.70;;;;;;5118726;27;20366;-83
2023/10/23 09:13:33;;;;;;;;;;;9.40;93.70;;;;;;5117170;27;20069;-84
2023/10/23 09:16:00;;;;;;;;;;;9.40;93.70;;;;;;5116190;27;20090;-84
2023/10/23 09:18:26;;;;;;;;;;;9.50;93.70;;;;;;5113539;27;20027;-83
2023/10/23 09:20:53;;;;;;;;;;;9.50;93.70;;;;;;5118299;27;20136;-84
2023/10/23 09:23:19;;;;;;;;;;;9.50;93.80;;;;;;5119078;27;20379;-84
2023/10/23 09:25:48;;;;;;;;;;;9.50;93.70;;;;;;5115088;27;19975;-83
2023/10/23 09:28:15;;;;;;;;;;;9.50;93.80;;;;;;5118477;27;19975;-83
2023/10/23 09:30:44;;;;;;;;;;;9.50;93.80;;;;;;5116031;27;19995;-83
2023/10/23 09:33:14;;;;;;;;;;;9.50;93.80;;;;;;5113526;27;20016;-83
2023/10/23 09:35:41;;;;;;;;;;;9.50;93.80;;;;;;5117238;27;20333;-83
2023/10/23 09:38:15;;;;;;;;;;;9.60;94.10;;;;;;5116825;27;19979;-84
2023/10/23 09:40:44;;;;;;;;;;;9.60;93.80;;;;;;5119712;27;19974;-84
2023/10/23 09:43:11;;;;;;;;;;;9.60;93.70;;;;;;5120551;27;20479;-83
2023/10/23 09:45:38;;;;;;;;;;;9.60;93.70;;;;;;5118088;27;20005;-84
2023/10/23 09:48:07;;;;;;;;;;;9.60;93.70;;;;;;5116944;27;19978;-83
2023/10/23 09:50:36;;;;;;;;;;;9.60;93.70;;;;;;5117725;27;20041;-85
2023/10/23 09:53:05;;;;;;;;;;;9.70;93.80;;;;;;5119110;27;19990;-85
2023/10/23 09:55:33;;;;;;;;;;;9.70;93.90;;;;;;5115568;27;20455;-83
2023/10/23 09:58:05;;;;;;;;;;;9.70;93.90;;;;;;5119252;27;19982;-84
2023/10/23 10:00:33;;;;;;;;;;;9.70;93.90;;;;;;5119084;27;20002;-83
2023/10/23 10:03:00;;;;;;;;;;;9.80;93.90;;;;;;5119121;27;20006;-82
2023/10/23 10:05:33;;;;;;;;;;;9.80;94.10;;;;;;5117948;27;20007;-84
2023/10/23 10:08:02;;;;;;;;;;;9.80;93.80;;;;;;5115054;27;20257;-82
2023/10/23 10:10:30;;;;;;;;;;;9.80;93.70;;;;;;5117049;27;19981;-83
2023/10/23 10:12:57;;;;;;;;;;;9.80;93.70;;;;;;5118275;27;20235;-83
2023/10/23 10:15:23;;;;;;;;;;;9.80;93.70;;;;;;5116854;27;20073;-83
2023/10/23 10:17:50;;;;;;;;;;;9.90;93.70;;;;;;5116528;27;19997;-84
2023/10/23 10:20:19;;;;;;;;;;;9.90;93.70;;;;;;5115130;27;20018;-84
2023/10/23 10:22:48;;;;;;;;;;;9.90;93.70;;;;;;5119799;27;19991;-84
2023/10/23 10:25:15;;;;;;;;;;;9.90;93.70;;;;;;5116128;27;19981;-84
2023/10/23 10:27:42;;;;;;;;;;;9.90;93.70;;;;;;5118681;27;19974;-84
2023/10/23 10:30:29;;;;;;;;;;;10.00;93.70;;;;;;5117869;27;19986;-83
2023/10/23 10:33:00;;;;;;;;;;;10.00;93.70;;;;;;5128430;27;20005;-84
2023/10/23 10:35:28;;;;;;;;;;;10.00;93.80;;;;;;5122571;27;19978;-84
2023/10/23 10:38:01;;;;;;;;;;;10.00;93.80;;;;;;5117133;27;20076;-83
2023/10/23 10:40:27;;;;;;;;;;;10.00;93.80;;;;;;5120723;27;20535;-84
2023/10/23 10:42:56;;;;;;;;;;;10.00;93.90;;;;;;5111746;27;20003;-83
2023/10/23 10:45:26;;;;;;;;;;;10.10;93.90;;;;;;5123001;27;20255;-83
2023/10/23 10:47:53;;;;;;;;;;;10.10;93.90;;;;;;5114411;27;19982;-84
2023/10/23 10:50:38;;;;;;;;;;;10.10;93.90;;;;;;5119709;27;19981;-83
2023/10/23 10:53:07;;;;;;;;;;;10.10;93.80;;;;;;5120067;27;20486;-83
2023/10/23 10:55:35;;;;;;;;;;;10.20;93.90;;;;;;5116210;27;19974;-83
2023/10/23 10:58:02;;;;;;;;;;;10.20;93.90;;;;;;5113036;27;20098;-84
2023/10/23 11:00:30;;;;;;;;;;;10.20;93.90;;;;;;5116436;27;20017;-83
2023/10/23 11:02:57;;;;;;;;;;;10.20;93.90;;;;;;5118198;27;20046;-83
2023/10/23 11:05:23;;;;;;;;;;;10.20;93.90;;;;;;5121134;27;19975;-83
2023/10/23 11:07:51;;;;;;;;;;;10.20;93.90;;;;;;5121849;27;19985;-85
2023/10/23 11:10:20;;;;;;;;;;;10.20;93.80;;;;;;5115180;27;19978;-83
2023/10/23 11:12:47;;;;;;;;;;;10.20;93.80;;;;;;5120077;27;20013;-83
2023/10/23 11:15:15;;;;;;;;;;;10.30;93.90;;;;;;5117184;27;20025;-84
2023/10/23 11:17:42;;;;;;;;;;;10.30;94.00;;;;;;5119557;27;19990;-82
2023/10/23 11:20:09;;;;;;;;;;;10.30;94.00;;;;;;5118213;27;20453;-84
2023/10/23 11:22:37;;;;;;;;;;;10.30;94.00;;;;;;5120947;27;19990;-82
2023/10/23 11:25:06;;;;;;;;;;;10.30;94.00;;;;;;5114313;27;20343;-83
2023/10/23 11:27:35;;;;;;;;;;;10.40;94.00;;;;;;5116988;27;19974;-85
2023/10/23 11:30:03;;;;;;;;;;;10.40;94.00;;;;;;5116676;27;20001;-84
2023/10/23 11:32:30;;;;;;;;;;;10.40;94.00;;;;;;5119244;27;20466;-83
2023/10/23 11:35:00;;;;;;;;;;;10.40;94.00;;;;;;5120021;27;19986;-83
2023/10/23 11:37:26;;;;;;;;;;;10.40;94.00;;;;;;5115342;27;20334;-83
2023/10/23 11:39:56;;;;;;;;;;;10.50;94.00;;;;;;5117388;27;19989;-83
2023/10/23 11:42:23;;;;;;;;;;;10.50;93.90;;;;;;5119336;27;20043;-83
2023/10/23 11:44:51;;;;;;;;;;;10.50;94.00;;;;;;5115669;27;20061;-84
2023/10/23 11:47:18;;;;;;;;;;;10.60;94.10;;;;;;5118986;27;20482;-84
2023/10/23 11:49:49;;;;;;;;;;;10.50;94.00;;;;;;5120292;27;19978;-83
2023/10/23 11:52:15;;;;;;;;;;;10.60;94.00;;;;;;5119934;27;20735;-84
2023/10/23 11:54:42;;;;;;;;;;;10.60;94.00;;;;;;5124140;27;19974;-84
2023/10/23 11:57:09;;;;;;;;;;;10.60;94.00;;;;;;5117193;27;20009;-83
2023/10/23 11:59:39;;;;;;;;;;;10.60;94.00;;;;;;5123419;27;20000;-82
2023/10/23 12:02:07;;;;;;;;;;;10.70;94.00;;;;;;5114975;27;20003;-83
2023/10/23 12:04:35;;;;;;;;;;;10.70;94.00;;;;;;5125701;27;20384;-83
2023/10/23 12:07:03;;;;;;;;;;;10.70;94.00;;;;;;5122679;27;19979;-83
2023/10/23 12:09:30;;;;;;;;;;;10.70;93.90;;;;;;5120605;27;19976;-84
2023/10/23 12:11:56;;;;;;;;;;;10.70;93.90;;;;;;5125099;27;20277;-84
2023/10/23 12:14:23;;;;;;;;;;;10.80;93.90;;;;;;5124924;27;19974;-82
2023/10/23 12:16:49;;;;;;;;;;;10.80;93.90;;;;;;5119721;27;20009;-84
2023/10/23 12:19:19;;;;;;;;;;;10.80;93.90;;;;;;5120532;27;19978;-82
2023/10/23 12:21:45;;;;;;;;;;;10.90;93.80;;;;;;5118664;27;19991;-85
2023/10/23 12:24:12;;;;;;;;;;;10.80;93.80;;;;;;5119144;27;20800;-84
2023/10/23 12:26:38;;;;;;;;;;;10.90;93.80;;;;;;5119531;27;20299;-83
2023/10/23 12:29:07;;;;;;;;;;;10.80;93.80;;;;;;5121125;27;20343;-83
2023/10/23 12:31:34;;;;;;;;;;;10.90;93.80;;;;;;5114628;27;20013;-83
2023/10/23 12:34:00;;;;;;;;;;;10.90;93.90;;;;;;5124548;27;19978;-84
2023/10/23 12:36:28;;;;;;;;;;;10.90;93.80;;;;;;5118294;27;19975;-83
2023/10/23 12:38:55;;;;;;;;;;;10.90;93.80;;;;;;5119192;27;19978;-84
2023/10/23 12:41:21;;;;;;;;;;;10.90;93.80;;;;;;5120140;27;19981;-82
2023/10/23 12:43:48;;;;;;;;;;;11.00;93.90;;;;;;5121494;27;20474;-84
2023/10/23 12:46:15;;;;;;;;;;;11.00;93.90;;;;;;5117145;27;20076;-83
2023/10/23 12:48:43;;;;;;;;;;;11.00;93.90;;;;;;5123219;27;20520;-83
2023/10/23 12:51:10;;;;;;;;;;;11.00;93.90;;;;;;5123630;27;20359;-83
2023/10/23 12:53:39;;;;;;;;;;;11.00;93.90;;;;;;5121945;27;19990;-82
2023/10/23 12:56:06;;;;;;;;;;;11.00;93.90;;;;;;5121142;27;19983;-83
2023/10/23 12:58:33;;;;;;;;;;;11.10;93.90;;;;;;5122561;27;19994;-83
2023/10/23 13:01:00;;;;;;;;;;;11.10;94.00;;;;;;5116656;27;20001;-83
2023/10/23 13:03:26;;;;;;;;;;;11.10;94.00;;;;;;5125123;27;20163;-82
2023/10/23 13:05:53;;;;;;;;;;;11.10;94.00;;;;;;5117720;27;19983;-82
2023/10/23 13:08:19;;;;;;;;;;;11.20;94.00;;;;;;5120817;27;19985;-83
2023/10/23 13:10:47;;;;;;;;;;;11.10;94.00;;;;;;5114252;27;20051;-83
2023/10/23 13:13:14;;;;;;;;;;;11.10;94.00;;;;;;5117639;27;20042;-83
2023/10/23 13:15:41;;;;;;;;;;;11.10;93.90;;;;;;5121535;27;20001;-83
2023/10/23 13:18:07;;;;;;;;;;;11.20;94.00;;;;;;5112232;27;19998;-83
2023/10/23 13:20:34;;;;;;;;;;;11.10;93.90;;;;;;5121250;27;20120;-82
2023/10/23 13:23:00;;;;;;;;;;;11.20;93.90;;;;;;5115698;27;20002;-83
2023/10/23 13:25:27;;;;;;;;;;;11.20;93.90;;;;;;5122121;27;19978;-82
2023/10/23 13:27:55;;;;;;;;;;;11.20;93.90;;;;;;5118406;27;20833;-83
2023/10/23 13:30:22;;;;;;;;;;;11.20;93.80;;;;;;5114067;27;20061;-83
2023/10/23 13:32:49;;;;;;;;;;;11.20;93.80;;;;;;5116428;27;19994;-86
2023/10/23 13:35:15;;;;;;;;;;;11.20;93.80;;;;;;5118103;27;20454;-83
2023/10/23 13:37:42;;;;;;;;;;;11.20;93.80;;;;;;5117043;27;19990;-84
2023/10/23 13:40:09;;;;;;;;;;;11.20;93.80;;;;;;5118691;27;19985;-82
2023/10/23 13:42:36;;;;;;;;;;;11.30;93.80;;;;;;5115775;27;19997;-82
2023/10/23 13:45:04;;;;;;;;;;;11.30;93.80;;;;;;5116237;27;19986;-82
2023/10/23 13:47:31;;;;;;;;;;;11.30;93.80;;;;;;5117311;27;20001;-80
2023/10/23 13:49:58;;;;;;;;;;;11.30;93.90;;;;;;5117702;27;20170;-79
2023/10/23 13:52:24;;;;;;;;;;;11.30;93.90;;;;;;5114873;27;20522;-79
2023/10/23 13:54:52;;;;;;;;;;;11.30;94.00;;;;;;5119122;27;19974;-79
2023/10/23 13:57:18;;;;;;;;;;;11.30;94.30;;;;;;5114314;27;20208;-79
2023/10/23 13:59:45;;;;;;;;;;;11.30;94.30;;;;;;5122860;27;19975;-79
2023/10/23 14:02:13;;;;;;;;;;;11.30;94.30;;;;;;5117651;27;19998;-79
2023/10/23 14:04:40;;;;;;;;;;;11.30;94.30;;;;;;5120555;27;20005;-79
2023/10/23 14:07:11;;;;;;;;;;;11.40;94.50;;;;;;5116628;27;19982;-78
2023/10/23 14:09:38;;;;;;;;;;;11.40;94.50;;;;;;5124551;27;20447;-78
2023/10/23 14:12:05;;;;;;;;;;;11.40;94.50;;;;;;5119573;27;20002;-79
2023/10/23 14:14:32;;;;;;;;;;;11.40;94.50;;;;;;5118659;27;20753;-78
2023/10/23 14:16:58;;;;;;;;;;;11.40;94.50;;;;;;5111568;27;19995;-79
2023/10/23 14:19:27;;;;;;;;;;;11.40;94.60;;;;;;5122253;27;19974;-79
2023/10/23 14:21:54;;;;;;;;;;;11.40;94.60;;;;;;5111251;27;20144;-79
2023/10/23 14:24:24;;;;;;;;;;;11.40;94.60;;;;;;5121733;27;19990;-78